sensor_id;sensor_type;location;lat;lon;timestamp;temperature;humidity
19665;DHT22;9980;51.020;7.772;2023-08-12T00:02:00;21.70;99.90
19665;DHT22;9980;51.020;7.772;2023-08-12T00:04:27;21.70;99.90
19665;DHT22;9980;51.020;7.772;2023-08-12T00:06:54;21.80;99.90
19665;DHT22;9980;51.020;7.772;2023-08-12T00:09:21;21.80;99.90
19665;DHT22;9980;51.020;7.772;2023-08-12T00:11:49;21.80;99.90
19665;DHT22;9980;51.020;7.772;2023-08-12T00:14:16;21.90;99.90
19665;DHT22;9980;51.020;7.772;2023-08-12T00:16:43;21.90;99.90
19665;DHT22;9980;51.020;7.772;2023-08-12T00:19:10;21.90;99.90
19665;DHT22;9980;51.020;7.772;2023-08-12T00:21:37;22.00;99.90
19665;DHT22;9980;51.020;7.772;2023-08-12T00:24:04;22.00;99.90
19665;DHT22;9980;51.020;7.772;2023-08-12T00:26:31;22.00;99.90
19665;DHT22;9980;51.020;7.772;2023-08-12T00:28:58;22.10;99.90
19665;DHT22;9980;51.020;7.772;2023-08-12T00:31:25;22.10;99.90
19665;DHT22;9980;51.020;7.772;2023-08-12T00:33:52;22.20;99.90
19665;DHT22;9980;51.020;7.772;2023-08-12T00:36:19;22.20;99.90
19665;DHT22;9980;51.020;7.772;2023-08-12T00:38:47;22.20;99.90
19665;DHT22;9980;51.020;7.772;2023-08-12T00:41:13;22.30;99.90
19665;DHT22;9980;51.020;7.772;2023-08-12T00:43:40;22.30;99.90
19665;DHT22;9980;51.020;7.772;2023-08-12T00:46:08;22.30;99.90
19665;DHT22;9980;51.020;7.772;2023-08-12T00:48:35;22.40;99.90
19665;DHT22;9980;51.020;7.772;2023-08-12T00:51:02;22.40;99.90
19665;DHT22;9980;51.020;7.772;2023-08-12T00:53:30;22.40;99.90
19665;DHT22;9980;51.020;7.772;2023-08-12T00:55:58;22.40;99.90
19665;DHT22;9980;51.020;7.772;2023-08-12T00:58:25;22.40;99.90
19665;DHT22;9980;51.020;7.772;2023-08-12T01:00:52;22.50;99.90
19665;DHT22;9980;51.020;7.772;2023-08-12T01:03:19;22.50;99.90
19665;DHT22;9980;51.020;7.772;2023-08-12T01:05:47;22.50;99.90
19665;DHT22;9980;51.020;7.772;2023-08-12T01:08:14;22.50;99.90
19665;DHT22;9980;51.020;7.772;2023-08-12T01:10:45;22.50;99.90
19665;DHT22;9980;51.020;7.772;2023-08-12T01:13:29;22.50;99.90
19665;DHT22;9980;51.020;7.772;2023-08-12T01:16:03;22.50;99.90
19665;DHT22;9980;51.020;7.772;2023-08-12T01:18:35;22.60;99.90
19665;DHT22;9980;51.020;7.772;2023-08-12T01:21:07;22.60;99.90
19665;DHT22;9980;51.020;7.772;2023-08-12T01:23:39;22.60;99.90
19665;DHT22;9980;51.020;7.772;2023-08-12T01:26:06;22.60;99.90
19665;DHT22;9980;51.020;7.772;2023-08-12T01:28:33;22.60;99.90
19665;DHT22;9980;51.020;7.772;2023-08-12T01:31:12;22.60;99.90
19665;DHT22;9980;51.020;7.772;2023-08-12T01:33:58;22.60;99.90
19665;DHT22;9980;51.020;7.772;2023-08-12T01:36:39;22.60;99.90
19665;DHT22;9980;51.020;7.772;2023-08-12T01:39:13;22.60;99.90
19665;DHT22;9980;51.020;7.772;2023-08-12T01:41:42;22.60;99.90
19665;DHT22;9980;51.020;7.772;2023-08-12T01:44:09;22.60;99.90
19665;DHT22;9980;51.020;7.772;2023-08-12T01:46:36;22.60;99.90
19665;DHT22;9980;51.020;7.772;2023-08-12T01:49:04;22.60;99.90
19665;DHT22;9980;51.020;7.772;2023-08-12T01:51:31;22.60;99.90
19665;DHT22;9980;51.020;7.772;2023-08-12T01:53:58;22.60;99.90
19665;DHT22;9980;51.020;7.772;2023-08-12T01:56:25;22.60;99.90
19665;DHT22;9980;51.020;7.772;2023-08-12T01:58:52;22.70;99.90
19665;DHT22;9980;51.020;7.772;2023-08-12T02:01:19;22.70;99.90
19665;DHT22;9980;51.020;7.772;2023-08-12T02:03:46;22.70;99.90
19665;DHT22;9980;51.020;7.772;2023-08-12T02:06:13;22.70;99.90
19665;DHT22;9980;51.020;7.772;2023-08-12T02:08:43;22.70;99.90
19665;DHT22;9980;51.020;7.772;2023-08-12T02:11:11;22.70;99.90
19665;DHT22;9980;51.020;7.772;2023-08-12T02:13:38;22.70;99.90
19665;DHT22;9980;51.020;7.772;2023-08-12T02:16:05;22.70;99.90
19665;DHT22;9980;51.020;7.772;2023-08-12T02:18:32;22.70;99.90
19665;DHT22;9980;51.020;7.772;2023-08-12T02:20:59;22.70;99.90
19665;DHT22;9980;51.020;7.772;2023-08-12T02:23:26;22.70;99.90
19665;DHT22;9980;51.020;7.772;2023-08-12T02:25:53;22.70;99.90
19665;DHT22;9980;51.020;7.772;2023-08-12T02:28:20;22.80;99.90
19665;DHT22;9980;51.020;7.772;2023-08-12T02:30:47;22.80;99.90
19665;DHT22;9980;51.020;7.772;2023-08-12T02:33:14;22.80;99.90
19665;DHT22;9980;51.020;7.772;2023-08-12T02:35:42;22.80;99.90
19665;DHT22;9980;51.020;7.772;2023-08-12T02:38:09;22.80;99.90
19665;DHT22;9980;51.020;7.772;2023-08-12T02:40:36;22.80;99.90
19665;DHT22;9980;51.020;7.772;2023-08-12T02:43:03;22.80;99.90
19665;DHT22;9980;51.020;7.772;2023-08-12T02:45:30;22.80;99.90
19665;DHT22;9980;51.020;7.772;2023-08-12T02:47:57;22.80;99.90
19665;DHT22;9980;51.020;7.772;2023-08-12T02:50:24;22.80;99.90
19665;DHT22;9980;51.020;7.772;2023-08-12T02:52:51;22.80;99.90
19665;DHT22;9980;51.020;7.772;2023-08-12T02:55:20;22.80;99.90
19665;DHT22;9980;51.020;7.772;2023-08-12T02:57:47;22.80;99.90
19665;DHT22;9980;51.020;7.772;2023-08-12T03:00:14;22.80;99.90
19665;DHT22;9980;51.020;7.772;2023-08-12T03:02:42;22.90;99.90
19665;DHT22;9980;51.020;7.772;2023-08-12T03:05:10;22.90;99.90
19665;DHT22;9980;51.020;7.772;2023-08-12T03:07:37;22.90;99.90
19665;DHT22;9980;51.020;7.772;2023-08-12T03:10:05;22.90;99.90
19665;DHT22;9980;51.020;7.772;2023-08-12T03:12:33;22.90;99.90
19665;DHT22;9980;51.020;7.772;2023-08-12T03:15:02;22.80;99.90
19665;DHT22;9980;51.020;7.772;2023-08-12T03:17:30;22.80;99.90
19665;DHT22;9980;51.020;7.772;2023-08-12T03:19:57;22.90;99.90
19665;DHT22;9980;51.020;7.772;2023-08-12T03:22:30;22.90;99.90
19665;DHT22;9980;51.020;7.772;2023-08-12T03:24:58;22.90;99.90
19665;DHT22;9980;51.020;7.772;2023-08-12T03:27:25;22.80;99.90
19665;DHT22;9980;51.020;7.772;2023-08-12T03:29:52;22.90;99.90
19665;DHT22;9980;51.020;7.772;2023-08-12T03:32:19;22.90;99.90
19665;DHT22;9980;51.020;7.772;2023-08-12T03:34:46;22.90;99.90
19665;DHT22;9980;51.020;7.772;2023-08-12T03:37:14;22.80;99.90
19665;DHT22;9980;51.020;7.772;2023-08-12T03:39:41;22.80;99.90
19665;DHT22;9980;51.020;7.772;2023-08-12T03:42:09;22.90;99.90
19665;DHT22;9980;51.020;7.772;2023-08-12T03:44:36;22.90;99.90
19665;DHT22;9980;51.020;7.772;2023-08-12T03:47:03;22.90;99.90
19665;DHT22;9980;51.020;7.772;2023-08-12T03:49:31;22.90;99.90
19665;DHT22;9980;51.020;7.772;2023-08-12T03:51:58;22.80;99.90
19665;DHT22;9980;51.020;7.772;2023-08-12T03:54:25;22.80;99.90
19665;DHT22;9980;51.020;7.772;2023-08-12T03:56:52;22.80;99.90
19665;DHT22;9980;51.020;7.772;2023-08-12T03:59:20;22.80;99.90
19665;DHT22;9980;51.020;7.772;2023-08-12T04:01:47;22.80;99.90
19665;DHT22;9980;51.020;7.772;2023-08-12T04:04:14;22.80;99.90
19665;DHT22;9980;51.020;7.772;2023-08-12T04:06:41;22.80;99.90
19665;DHT22;9980;51.020;7.772;2023-08-12T04:09:07;22.80;99.90
19665;DHT22;9980;51.020;7.772;2023-08-12T04:11:34;22.80;99.90
19665;DHT22;9980;51.020;7.772;2023-08-12T04:14:01;22.80;99.90
19665;DHT22;9980;51.020;7.772;2023-08-12T04:16:29;22.80;99.90
19665;DHT22;9980;51.020;7.772;2023-08-12T04:18:56;22.80;99.90
19665;DHT22;9980;51.020;7.772;2023-08-12T04:21:23;22.80;99.90
19665;DHT22;9980;51.020;7.772;2023-08-12T04:23:50;22.80;99.90
19665;DHT22;9980;51.020;7.772;2023-08-12T04:26:17;22.80;99.90
19665;DHT22;9980;51.020;7.772;2023-08-12T04:28:44;22.80;99.90
19665;DHT22;9980;51.020;7.772;2023-08-12T04:31:11;22.80;99.90
19665;DHT22;9980;51.020;7.772;2023-08-12T04:33:41;22.80;99.90
19665;DHT22;9980;51.020;7.772;2023-08-12T04:36:08;22.80;99.90
19665;DHT22;9980;51.020;7.772;2023-08-12T04:38:36;22.90;99.90
19665;DHT22;9980;51.020;7.772;2023-08-12T04:41:06;22.80;99.90
19665;DHT22;9980;51.020;7.772;2023-08-12T04:43:34;22.80;99.90
19665;DHT22;9980;51.020;7.772;2023-08-12T04:46:02;22.80;99.90
19665;DHT22;9980;51.020;7.772;2023-08-12T04:48:31;22.80;99.90
19665;DHT22;9980;51.020;7.772;2023-08-12T04:51:00;22.80;99.90
19665;DHT22;9980;51.020;7.772;2023-08-12T04:53:28;22.80;99.90
19665;DHT22;9980;51.020;7.772;2023-08-12T04:55:56;22.80;99.90
19665;DHT22;9980;51.020;7.772;2023-08-12T04:58:23;22.80;99.90
19665;DHT22;9980;51.020;7.772;2023-08-12T05:00:51;22.80;99.90
19665;DHT22;9980;51.020;7.772;2023-08-12T05:03:21;22.80;99.90
19665;DHT22;9980;51.020;7.772;2023-08-12T05:05:51;22.80;99.90
19665;DHT22;9980;51.020;7.772;2023-08-12T05:08:23;22.80;99.90
19665;DHT22;9980;51.020;7.772;2023-08-12T05:10:50;22.90;99.90
19665;DHT22;9980;51.020;7.772;2023-08-12T05:13:17;22.90;99.90
19665;DHT22;9980;51.020;7.772;2023-08-12T05:15:48;22.90;99.90
19665;DHT22;9980;51.020;7.772;2023-08-12T05:18:16;22.90;99.90
19665;DHT22;9980;51.020;7.772;2023-08-12T05:20:44;22.90;99.90
19665;DHT22;9980;51.020;7.772;2023-08-12T05:23:13;22.90;99.90
19665;DHT22;9980;51.020;7.772;2023-08-12T05:25:41;23.00;99.90
19665;DHT22;9980;51.020;7.772;2023-08-12T05:28:09;23.00;99.90
19665;DHT22;9980;51.020;7.772;2023-08-12T05:30:36;23.00;99.90
19665;DHT22;9980;51.020;7.772;2023-08-12T05:33:03;23.00;99.90
19665;DHT22;9980;51.020;7.772;2023-08-12T05:35:37;23.00;99.90
19665;DHT22;9980;51.020;7.772;2023-08-12T05:38:04;23.00;99.90
19665;DHT22;9980;51.020;7.772;2023-08-12T05:40:31;23.00;99.90
19665;DHT22;9980;51.020;7.772;2023-08-12T05:42:58;23.10;99.90
19665;DHT22;9980;51.020;7.772;2023-08-12T05:45:25;23.00;99.90
19665;DHT22;9980;51.020;7.772;2023-08-12T05:47:52;23.00;99.90
19665;DHT22;9980;51.020;7.772;2023-08-12T05:50:19;23.10;99.90
19665;DHT22;9980;51.020;7.772;2023-08-12T05:52:47;23.10;99.90
19665;DHT22;9980;51.020;7.772;2023-08-12T05:55:14;23.10;99.90
19665;DHT22;9980;51.020;7.772;2023-08-12T05:57:41;23.00;99.90
19665;DHT22;9980;51.020;7.772;2023-08-12T06:00:08;23.10;99.90
19665;DHT22;9980;51.020;7.772;2023-08-12T06:02:39;23.10;99.90
19665;DHT22;9980;51.020;7.772;2023-08-12T06:05:06;23.10;99.90
19665;DHT22;9980;51.020;7.772;2023-08-12T06:07:34;23.10;99.90
19665;DHT22;9980;51.020;7.772;2023-08-12T06:10:02;23.10;99.90
19665;DHT22;9980;51.020;7.772;2023-08-12T06:12:30;23.20;99.90
19665;DHT22;9980;51.020;7.772;2023-08-12T06:14:57;23.30;99.90
19665;DHT22;9980;51.020;7.772;2023-08-12T06:17:24;23.40;99.90
19665;DHT22;9980;51.020;7.772;2023-08-12T06:19:51;23.50;99.90
19665;DHT22;9980;51.020;7.772;2023-08-12T06:22:18;23.60;99.90
19665;DHT22;9980;51.020;7.772;2023-08-12T06:24:45;23.70;99.90
19665;DHT22;9980;51.020;7.772;2023-08-12T06:27:12;23.80;99.90
19665;DHT22;9980;51.020;7.772;2023-08-12T06:29:39;23.90;99.90
19665;DHT22;9980;51.020;7.772;2023-08-12T06:32:06;24.00;99.90
19665;DHT22;9980;51.020;7.772;2023-08-12T06:34:33;24.00;99.90
19665;DHT22;9980;51.020;7.772;2023-08-12T06:37:00;24.10;99.90
19665;DHT22;9980;51.020;7.772;2023-08-12T06:39:27;24.10;99.90
19665;DHT22;9980;51.020;7.772;2023-08-12T06:41:54;24.20;99.90
19665;DHT22;9980;51.020;7.772;2023-08-12T06:44:22;24.20;99.90
19665;DHT22;9980;51.020;7.772;2023-08-12T06:46:49;24.30;99.90
19665;DHT22;9980;51.020;7.772;2023-08-12T06:49:16;24.40;99.90
19665;DHT22;9980;51.020;7.772;2023-08-12T06:51:44;24.40;99.90
19665;DHT22;9980;51.020;7.772;2023-08-12T06:54:12;24.40;99.90
19665;DHT22;9980;51.020;7.772;2023-08-12T06:56:39;24.40;99.90
19665;DHT22;9980;51.020;7.772;2023-08-12T06:59:06;24.50;99.90
19665;DHT22;9980;51.020;7.772;2023-08-12T07:01:33;24.40;99.90
19665;DHT22;9980;51.020;7.772;2023-08-12T07:04:00;24.40;99.90
19665;DHT22;9980;51.020;7.772;2023-08-12T07:06:27;24.40;99.90
19665;DHT22;9980;51.020;7.772;2023-08-12T07:08:54;24.40;99.90
19665;DHT22;9980;51.020;7.772;2023-08-12T07:11:22;24.40;99.90
19665;DHT22;9980;51.020;7.772;2023-08-12T07:13:49;24.30;99.90
19665;DHT22;9980;51.020;7.772;2023-08-12T07:16:16;24.30;99.90
19665;DHT22;9980;51.020;7.772;2023-08-12T07:18:44;24.20;99.90
19665;DHT22;9980;51.020;7.772;2023-08-12T07:21:11;24.20;99.90
19665;DHT22;9980;51.020;7.772;2023-08-12T07:23:38;24.10;99.90
19665;DHT22;9980;51.020;7.772;2023-08-12T07:26:09;24.10;99.90
19665;DHT22;9980;51.020;7.772;2023-08-12T07:28:36;24.10;99.90
19665;DHT22;9980;51.020;7.772;2023-08-12T07:31:03;24.00;99.90
19665;DHT22;9980;51.020;7.772;2023-08-12T07:33:30;24.00;99.90
19665;DHT22;9980;51.020;7.772;2023-08-12T07:35:57;24.00;99.90
19665;DHT22;9980;51.020;7.772;2023-08-12T07:38:24;24.00;99.90
19665;DHT22;9980;51.020;7.772;2023-08-12T07:40:51;24.00;99.90
19665;DHT22;9980;51.020;7.772;2023-08-12T07:43:18;24.00;99.90
19665;DHT22;9980;51.020;7.772;2023-08-12T07:45:51;24.00;99.90
19665;DHT22;9980;51.020;7.772;2023-08-12T07:48:35;24.00;99.90
19665;DHT22;9980;51.020;7.772;2023-08-12T07:51:02;24.10;99.90
19665;DHT22;9980;51.020;7.772;2023-08-12T07:53:29;24.10;99.90
19665;DHT22;9980;51.020;7.772;2023-08-12T07:55:57;24.20;99.90
19665;DHT22;9980;51.020;7.772;2023-08-12T07:58:24;24.30;99.90
19665;DHT22;9980;51.020;7.772;2023-08-12T08:00:54;24.40;99.90
19665;DHT22;9980;51.020;7.772;2023-08-12T08:03:21;24.50;99.90
19665;DHT22;9980;51.020;7.772;2023-08-12T08:05:48;24.50;99.90
19665;DHT22;9980;51.020;7.772;2023-08-12T08:08:15;24.60;99.90
19665;DHT22;9980;51.020;7.772;2023-08-12T08:10:42;24.70;99.90
19665;DHT22;9980;51.020;7.772;2023-08-12T08:13:09;24.70;99.90
19665;DHT22;9980;51.020;7.772;2023-08-12T08:15:36;24.80;99.90
19665;DHT22;9980;51.020;7.772;2023-08-12T08:18:04;24.80;99.90
19665;DHT22;9980;51.020;7.772;2023-08-12T08:20:34;24.90;99.90
19665;DHT22;9980;51.020;7.772;2023-08-12T08:23:02;24.90;99.90
19665;DHT22;9980;51.020;7.772;2023-08-12T08:25:29;25.00;99.90
19665;DHT22;9980;51.020;7.772;2023-08-12T08:27:56;25.10;99.90
19665;DHT22;9980;51.020;7.772;2023-08-12T08:30:23;25.20;99.90
19665;DHT22;9980;51.020;7.772;2023-08-12T08:32:52;25.30;99.90
19665;DHT22;9980;51.020;7.772;2023-08-12T08:35:22;25.30;99.90
19665;DHT22;9980;51.020;7.772;2023-08-12T08:37:49;25.40;99.90
19665;DHT22;9980;51.020;7.772;2023-08-12T08:40:16;25.50;99.90
19665;DHT22;9980;51.020;7.772;2023-08-12T08:42:47;25.60;99.90
19665;DHT22;9980;51.020;7.772;2023-08-12T08:45:21;25.70;99.90
19665;DHT22;9980;51.020;7.772;2023-08-12T08:47:51;25.80;99.90
19665;DHT22;9980;51.020;7.772;2023-08-12T08:50:20;25.90;99.90
19665;DHT22;9980;51.020;7.772;2023-08-12T08:52:48;25.90;99.90
19665;DHT22;9980;51.020;7.772;2023-08-12T08:55:17;26.00;99.90
19665;DHT22;9980;51.020;7.772;2023-08-12T08:57:49;26.00;99.90
19665;DHT22;9980;51.020;7.772;2023-08-12T09:00:17;26.10;99.90
19665;DHT22;9980;51.020;7.772;2023-08-12T09:02:48;26.10;99.90
19665;DHT22;9980;51.020;7.772;2023-08-12T09:05:17;26.20;99.90
19665;DHT22;9980;51.020;7.772;2023-08-12T09:07:49;26.20;99.90
19665;DHT22;9980;51.020;7.772;2023-08-12T09:10:20;26.20;99.90
19665;DHT22;9980;51.020;7.772;2023-08-12T09:12:47;26.20;99.90
19665;DHT22;9980;51.020;7.772;2023-08-12T09:15:16;26.30;99.90
19665;DHT22;9980;51.020;7.772;2023-08-12T09:17:43;26.30;99.90
19665;DHT22;9980;51.020;7.772;2023-08-12T09:20:10;26.40;99.90
19665;DHT22;9980;51.020;7.772;2023-08-12T09:22:42;26.40;99.90
19665;DHT22;9980;51.020;7.772;2023-08-12T09:25:10;26.40;99.90
19665;DHT22;9980;51.020;7.772;2023-08-12T09:27:37;26.50;99.90
19665;DHT22;9980;51.020;7.772;2023-08-12T09:30:07;26.60;99.90
19665;DHT22;9980;51.020;7.772;2023-08-12T09:32:35;26.60;99.90
19665;DHT22;9980;51.020;7.772;2023-08-12T09:35:05;26.60;99.90
19665;DHT22;9980;51.020;7.772;2023-08-12T09:37:33;26.60;99.90
19665;DHT22;9980;51.020;7.772;2023-08-12T09:40:00;26.60;99.90
19665;DHT22;9980;51.020;7.772;2023-08-12T09:42:28;26.70;99.90
19665;DHT22;9980;51.020;7.772;2023-08-12T09:44:56;26.70;99.90
19665;DHT22;9980;51.020;7.772;2023-08-12T09:47:25;26.70;99.90
19665;DHT22;9980;51.020;7.772;2023-08-12T09:49:54;26.70;99.90
19665;DHT22;9980;51.020;7.772;2023-08-12T09:52:22;26.80;99.90
19665;DHT22;9980;51.020;7.772;2023-08-12T09:54:52;26.80;99.90
19665;DHT22;9980;51.020;7.772;2023-08-12T09:57:25;26.90;99.90
19665;DHT22;9980;51.020;7.772;2023-08-12T09:59:57;26.90;99.90
19665;DHT22;9980;51.020;7.772;2023-08-12T10:02:25;26.90;99.90
19665;DHT22;9980;51.020;7.772;2023-08-12T10:04:54;27.00;99.90
19665;DHT22;9980;51.020;7.772;2023-08-12T10:07:23;27.00;99.90
19665;DHT22;9980;51.020;7.772;2023-08-12T10:09:52;27.00;99.90
19665;DHT22;9980;51.020;7.772;2023-08-12T10:12:20;27.00;99.90
19665;DHT22;9980;51.020;7.772;2023-08-12T10:14:49;27.00;99.90
19665;DHT22;9980;51.020;7.772;2023-08-12T10:17:16;27.00;99.90
19665;DHT22;9980;51.020;7.772;2023-08-12T10:20:05;27.00;99.90
19665;DHT22;9980;51.020;7.772;2023-08-12T10:22:35;27.00;99.90
19665;DHT22;9980;51.020;7.772;2023-08-12T10:25:04;27.00;99.90
19665;DHT22;9980;51.020;7.772;2023-08-12T10:27:32;26.90;99.90
19665;DHT22;9980;51.020;7.772;2023-08-12T10:30:04;26.90;99.90
19665;DHT22;9980;51.020;7.772;2023-08-12T10:32:32;26.90;99.90
19665;DHT22;9980;51.020;7.772;2023-08-12T10:35:02;27.00;99.90
19665;DHT22;9980;51.020;7.772;2023-08-12T10:37:32;27.00;99.90
19665;DHT22;9980;51.020;7.772;2023-08-12T10:40:04;27.10;99.90
19665;DHT22;9980;51.020;7.772;2023-08-12T10:42:47;27.10;99.90
19665;DHT22;9980;51.020;7.772;2023-08-12T10:45:57;27.20;99.90
19665;DHT22;9980;51.020;7.772;2023-08-12T10:48:25;27.30;99.90
19665;DHT22;9980;51.020;7.772;2023-08-12T10:50:58;27.40;99.90
19665;DHT22;9980;51.020;7.772;2023-08-12T10:53:32;27.40;99.90
19665;DHT22;9980;51.020;7.772;2023-08-12T10:56:05;27.50;99.90
19665;DHT22;9980;51.020;7.772;2023-08-12T10:58:45;27.50;99.90
19665;DHT22;9980;51.020;7.772;2023-08-12T11:01:17;27.60;99.90
19665;DHT22;9980;51.020;7.772;2023-08-12T11:03:48;27.60;99.90
19665;DHT22;9980;51.020;7.772;2023-08-12T11:06:15;27.70;99.90
19665;DHT22;9980;51.020;7.772;2023-08-12T11:08:56;27.80;99.90
19665;DHT22;9980;51.020;7.772;2023-08-12T11:11:26;27.90;99.90
19665;DHT22;9980;51.020;7.772;2023-08-12T11:13:56;28.00;99.90
19665;DHT22;9980;51.020;7.772;2023-08-12T11:16:37;28.10;99.90
19665;DHT22;9980;51.020;7.772;2023-08-12T11:19:17;28.20;99.90
19665;DHT22;9980;51.020;7.772;2023-08-12T11:21:49;28.30;99.90
19665;DHT22;9980;51.020;7.772;2023-08-12T11:24:19;28.30;99.60
19665;DHT22;9980;51.020;7.772;2023-08-12T11:26:50;28.30;99.90
19665;DHT22;9980;51.020;7.772;2023-08-12T11:29:40;28.30;99.90
19665;DHT22;9980;51.020;7.772;2023-08-12T11:32:08;28.30;99.90
19665;DHT22;9980;51.020;7.772;2023-08-12T11:34:44;28.40;99.60
19665;DHT22;9980;51.020;7.772;2023-08-12T11:37:11;28.40;99.90
19665;DHT22;9980;51.020;7.772;2023-08-12T11:39:38;28.50;99.70
19665;DHT22;9980;51.020;7.772;2023-08-12T11:42:08;28.50;99.90
19665;DHT22;9980;51.020;7.772;2023-08-12T11:44:35;28.60;99.50
19665;DHT22;9980;51.020;7.772;2023-08-12T11:47:02;28.70;99.20
19665;DHT22;9980;51.020;7.772;2023-08-12T11:49:31;28.70;99.20
19665;DHT22;9980;51.020;7.772;2023-08-12T11:51:58;28.80;99.40
19665;DHT22;9980;51.020;7.772;2023-08-12T11:54:37;28.80;99.50
19665;DHT22;9980;51.020;7.772;2023-08-12T11:57:05;28.80;99.50
19665;DHT22;9980;51.020;7.772;2023-08-12T11:59:32;28.90;99.30
19665;DHT22;9980;51.020;7.772;2023-08-12T12:02:02;28.90;99.10
19665;DHT22;9980;51.020;7.772;2023-08-12T12:04:32;28.90;98.60
19665;DHT22;9980;51.020;7.772;2023-08-12T12:07:02;28.90;98.50
19665;DHT22;9980;51.020;7.772;2023-08-12T12:09:32;28.90;98.60
19665;DHT22;9980;51.020;7.772;2023-08-12T12:12:02;28.90;98.70
19665;DHT22;9980;51.020;7.772;2023-08-12T12:14:30;28.90;98.70
19665;DHT22;9980;51.020;7.772;2023-08-12T12:16:57;28.90;98.40
19665;DHT22;9980;51.020;7.772;2023-08-12T12:19:27;28.90;98.70
19665;DHT22;9980;51.020;7.772;2023-08-12T12:21:54;28.90;98.40
19665;DHT22;9980;51.020;7.772;2023-08-12T12:24:21;28.90;98.30
19665;DHT22;9980;51.020;7.772;2023-08-12T12:26:49;28.90;98.20
19665;DHT22;9980;51.020;7.772;2023-08-12T12:29:16;28.90;98.20
19665;DHT22;9980;51.020;7.772;2023-08-12T12:31:43;28.80;98.00
19665;DHT22;9980;51.020;7.772;2023-08-12T12:34:11;28.80;98.20
19665;DHT22;9980;51.020;7.772;2023-08-12T12:36:38;28.70;97.90
19665;DHT22;9980;51.020;7.772;2023-08-12T12:39:06;28.70;97.80
19665;DHT22;9980;51.020;7.772;2023-08-12T12:41:33;28.60;97.80
19665;DHT22;9980;51.020;7.772;2023-08-12T12:44:01;28.60;97.80
19665;DHT22;9980;51.020;7.772;2023-08-12T12:46:30;28.50;98.00
19665;DHT22;9980;51.020;7.772;2023-08-12T12:48:57;28.40;98.20
19665;DHT22;9980;51.020;7.772;2023-08-12T12:51:24;28.40;98.30
19665;DHT22;9980;51.020;7.772;2023-08-12T12:53:51;28.40;98.40
19665;DHT22;9980;51.020;7.772;2023-08-12T12:56:19;28.40;98.20
19665;DHT22;9980;51.020;7.772;2023-08-12T12:58:46;28.30;98.60
19665;DHT22;9980;51.020;7.772;2023-08-12T13:01:13;28.30;98.20
19665;DHT22;9980;51.020;7.772;2023-08-12T13:03:41;28.30;98.00
19665;DHT22;9980;51.020;7.772;2023-08-12T13:06:08;28.30;98.20
19665;DHT22;9980;51.020;7.772;2023-08-12T13:08:35;28.30;98.10
19665;DHT22;9980;51.020;7.772;2023-08-12T13:11:03;28.20;98.30
19665;DHT22;9980;51.020;7.772;2023-08-12T13:13:30;28.20;98.50
19665;DHT22;9980;51.020;7.772;2023-08-12T13:15:57;28.20;99.00
19665;DHT22;9980;51.020;7.772;2023-08-12T13:18:26;28.20;99.20
19665;DHT22;9980;51.020;7.772;2023-08-12T13:20:53;28.20;99.20
19665;DHT22;9980;51.020;7.772;2023-08-12T13:23:20;28.30;98.80
19665;DHT22;9980;51.020;7.772;2023-08-12T13:25:47;28.30;98.90
19665;DHT22;9980;51.020;7.772;2023-08-12T13:28:14;28.30;98.70
19665;DHT22;9980;51.020;7.772;2023-08-12T13:30:41;28.30;98.50
19665;DHT22;9980;51.020;7.772;2023-08-12T13:33:08;28.30;98.60
19665;DHT22;9980;51.020;7.772;2023-08-12T13:35:35;28.30;98.70
19665;DHT22;9980;51.020;7.772;2023-08-12T13:38:02;28.30;98.30
19665;DHT22;9980;51.020;7.772;2023-08-12T13:40:30;28.30;98.70
19665;DHT22;9980;51.020;7.772;2023-08-12T13:42:57;28.30;98.70
19665;DHT22;9980;51.020;7.772;2023-08-12T13:45:24;28.30;98.70
19665;DHT22;9980;51.020;7.772;2023-08-12T13:47:51;28.30;98.70
19665;DHT22;9980;51.020;7.772;2023-08-12T13:50:18;28.30;98.90
19665;DHT22;9980;51.020;7.772;2023-08-12T13:52:46;28.40;98.90
19665;DHT22;9980;51.020;7.772;2023-08-12T13:55:14;28.40;98.70
19665;DHT22;9980;51.020;7.772;2023-08-12T13:57:41;28.50;98.60
19665;DHT22;9980;51.020;7.772;2023-08-12T14:00:08;28.60;98.40
19665;DHT22;9980;51.020;7.772;2023-08-12T14:02:41;28.70;98.30
19665;DHT22;9980;51.020;7.772;2023-08-12T14:05:08;28.70;98.10
19665;DHT22;9980;51.020;7.772;2023-08-12T14:07:37;28.80;98.60
19665;DHT22;9980;51.020;7.772;2023-08-12T14:10:05;28.80;98.20
19665;DHT22;9980;51.020;7.772;2023-08-12T14:12:32;28.90;98.10
19665;DHT22;9980;51.020;7.772;2023-08-12T14:15:01;29.00;98.20
19665;DHT22;9980;51.020;7.772;2023-08-12T14:17:28;29.00;98.30
19665;DHT22;9980;51.020;7.772;2023-08-12T14:19:55;29.00;98.30
19665;DHT22;9980;51.020;7.772;2023-08-12T14:22:22;29.10;98.20
19665;DHT22;9980;51.020;7.772;2023-08-12T14:24:49;29.20;98.30
19665;DHT22;9980;51.020;7.772;2023-08-12T14:27:17;29.30;98.10
19665;DHT22;9980;51.020;7.772;2023-08-12T14:29:45;29.40;98.00
19665;DHT22;9980;51.020;7.772;2023-08-12T14:32:13;29.40;98.00
19665;DHT22;9980;51.020;7.772;2023-08-12T14:34:42;29.40;97.80
19665;DHT22;9980;51.020;7.772;2023-08-12T14:37:12;29.50;97.60
19665;DHT22;9980;51.020;7.772;2023-08-12T14:39:40;29.50;97.00
19665;DHT22;9980;51.020;7.772;2023-08-12T14:42:07;29.60;96.80
19665;DHT22;9980;51.020;7.772;2023-08-12T14:44:35;29.60;96.50
19665;DHT22;9980;51.020;7.772;2023-08-12T14:47:03;29.60;96.20
19665;DHT22;9980;51.020;7.772;2023-08-12T14:49:30;29.60;96.70
19665;DHT22;9980;51.020;7.772;2023-08-12T14:51:57;29.50;96.70
19665;DHT22;9980;51.020;7.772;2023-08-12T14:54:25;29.50;96.60
19665;DHT22;9980;51.020;7.772;2023-08-12T14:56:52;29.40;96.80
19665;DHT22;9980;51.020;7.772;2023-08-12T14:59:19;29.30;96.90
19665;DHT22;9980;51.020;7.772;2023-08-12T15:01:46;29.20;96.60
19665;DHT22;9980;51.020;7.772;2023-08-12T15:04:13;29.00;97.00
19665;DHT22;9980;51.020;7.772;2023-08-12T15:06:41;28.90;97.00
19665;DHT22;9980;51.020;7.772;2023-08-12T15:09:08;28.80;97.50
19665;DHT22;9980;51.020;7.772;2023-08-12T15:11:36;28.70;98.00
19665;DHT22;9980;51.020;7.772;2023-08-12T15:14:03;28.70;98.20
19665;DHT22;9980;51.020;7.772;2023-08-12T15:16:30;28.70;98.00
19665;DHT22;9980;51.020;7.772;2023-08-12T15:18:58;28.70;97.70
19665;DHT22;9980;51.020;7.772;2023-08-12T15:21:25;28.60;97.70
19665;DHT22;9980;51.020;7.772;2023-08-12T15:23:52;28.60;97.90
19665;DHT22;9980;51.020;7.772;2023-08-12T15:26:21;28.60;98.10
19665;DHT22;9980;51.020;7.772;2023-08-12T15:28:51;28.60;97.90
19665;DHT22;9980;51.020;7.772;2023-08-12T15:31:18;28.60;97.80
19665;DHT22;9980;51.020;7.772;2023-08-12T15:33:45;28.60;97.30
19665;DHT22;9980;51.020;7.772;2023-08-12T15:36:13;28.60;97.00
19665;DHT22;9980;51.020;7.772;2023-08-12T15:38:40;28.50;96.90
19665;DHT22;9980;51.020;7.772;2023-08-12T15:41:16;28.50;96.70
19665;DHT22;9980;51.020;7.772;2023-08-12T15:43:43;28.40;96.80
19665;DHT22;9980;51.020;7.772;2023-08-12T15:46:10;28.50;97.00
19665;DHT22;9980;51.020;7.772;2023-08-12T15:48:37;28.40;96.90
19665;DHT22;9980;51.020;7.772;2023-08-12T15:51:04;28.40;96.90
19665;DHT22;9980;51.020;7.772;2023-08-12T15:53:31;28.40;97.10